North Lawrence, New York
Current Conditions -  °F | °C
As of 7:53 AM on Saturday 25 Oct 2014 (Local Time) from KMSS Reporting Station
Few Clouds Few Clouds  
Wind Chill: 34°   Ceiling: Unl
Heat Index: 39°   Visibility: 8mi
Dew Point: 37°   Wind: 7mph
Humidity: 93%   Direction: 230°SW
Pressure: 29.79"   Gusts: NA
Location:  44.8°N, 74.68°W
Report Text: KMSS 251153Z AUTO 23006KT 8SM FEW037 04/03 A2979 RMK AO2 SLP090 7//// T00390028 10072 20028 55006
Loading
Personal Weather Stations






























Interactive Weather Map
Tropical Storm Tracking
New forecast layout! Learn more

10-Day Weather Forecast

Advertisements
Track Severe Weather on mobile